sensor_id;sensor_type;location;lat;lon;timestamp;pressure;altitude;pressure_sealevel;temperature;humidity
70370;BME280;57790;51.356;-2.906;2022-12-20T00:00:18;100356.19;;;16.92;100.00
70370;BME280;57790;51.356;-2.906;2022-12-20T00:03:19;100364.22;;;16.86;100.00
70370;BME280;57790;51.356;-2.906;2022-12-20T00:06:22;100360.72;;;16.85;100.00
70370;BME280;57790;51.356;-2.906;2022-12-20T00:09:23;100359.09;;;16.84;100.00
70370;BME280;57790;51.356;-2.906;2022-12-20T00:12:24;100352.25;;;16.88;100.00
70370;BME280;57790;51.356;-2.906;2022-12-20T00:15:24;100353.13;;;16.82;100.00
70370;BME280;57790;51.356;-2.906;2022-12-20T00:18:25;100347.16;;;16.80;100.00
70370;BME280;57790;51.356;-2.906;2022-12-20T00:21:26;100342.03;;;16.79;100.00
70370;BME280;57790;51.356;-2.906;2022-12-20T00:24:29;100346.56;;;16.78;100.00
70370;BME280;57790;51.356;-2.906;2022-12-20T00:27:29;100338.94;;;16.75;100.00
70370;BME280;57790;51.356;-2.906;2022-12-20T00:30:30;100343.47;;;16.75;100.00
70370;BME280;57790;51.356;-2.906;2022-12-20T00:33:32;100341.44;;;16.70;100.00
70370;BME280;57790;51.356;-2.906;2022-12-20T00:36:32;100345.38;;;16.68;100.00
70370;BME280;57790;51.356;-2.906;2022-12-20T00:39:33;100355.66;;;16.64;100.00
70370;BME280;57790;51.356;-2.906;2022-12-20T00:42:33;100351.94;;;16.58;100.00
70370;BME280;57790;51.356;-2.906;2022-12-20T00:45:33;100342.47;;;16.56;100.00
70370;BME280;57790;51.356;-2.906;2022-12-20T00:48:34;100330.75;;;16.57;100.00
70370;BME280;57790;51.356;-2.906;2022-12-20T00:51:35;100328.50;;;16.54;100.00
70370;BME280;57790;51.356;-2.906;2022-12-20T00:54:35;100322.13;;;16.55;100.00
70370;BME280;57790;51.356;-2.906;2022-12-20T00:57:35;100332.63;;;16.50;100.00
70370;BME280;57790;51.356;-2.906;2022-12-20T01:00:36;100320.91;;;16.51;100.00
70370;BME280;57790;51.356;-2.906;2022-12-20T01:03:37;100317.81;;;16.47;100.00
70370;BME280;57790;51.356;-2.906;2022-12-20T01:06:37;100316.97;;;16.47;100.00
70370;BME280;57790;51.356;-2.906;2022-12-20T01:09:38;100313.47;;;16.46;100.00
70370;BME280;57790;51.356;-2.906;2022-12-20T01:12:38;100306.72;;;16.44;100.00
70370;BME280;57790;51.356;-2.906;2022-12-20T01:15:39;100308.16;;;16.40;100.00
70370;BME280;57790;51.356;-2.906;2022-12-20T01:18:39;100295.63;;;16.33;100.00
70370;BME280;57790;51.356;-2.906;2022-12-20T01:21:40;100284.31;;;16.38;100.00
70370;BME280;57790;51.356;-2.906;2022-12-20T01:24:43;100292.34;;;16.31;100.00
70370;BME280;57790;51.356;-2.906;2022-12-20T01:27:44;100298.13;;;16.35;100.00
70370;BME280;57790;51.356;-2.906;2022-12-20T01:30:44;100281.22;;;16.34;100.00
70370;BME280;57790;51.356;-2.906;2022-12-20T01:33:46;100295.63;;;16.33;100.00
70370;BME280;57790;51.356;-2.906;2022-12-20T01:36:47;100306.75;;;16.30;100.00
70370;BME280;57790;51.356;-2.906;2022-12-20T01:39:48;100311.88;;;16.32;100.00
70370;BME280;57790;51.356;-2.906;2022-12-20T01:42:49;100314.16;;;16.28;100.00
70370;BME280;57790;51.356;-2.906;2022-12-20T01:45:49;100295.66;;;16.27;100.00
70370;BME280;57790;51.356;-2.906;2022-12-20T01:48:54;100292.38;;;16.25;100.00
70370;BME280;57790;51.356;-2.906;2022-12-20T01:52:12;100283.75;;;16.23;100.00
70370;BME280;57790;51.356;-2.906;2022-12-20T01:55:22;100278.59;;;16.21;100.00
70370;BME280;57790;51.356;-2.906;2022-12-20T01:58:24;100278.59;;;16.21;100.00
70370;BME280;57790;51.356;-2.906;2022-12-20T02:01:25;100293.00;;;16.20;100.00
70370;BME280;57790;51.356;-2.906;2022-12-20T02:04:25;100308.84;;;16.22;100.00
70370;BME280;57790;51.356;-2.906;2022-12-20T02:07:28;100318.72;;;16.21;100.00
70370;BME280;57790;51.356;-2.906;2022-12-20T02:14:11;100309.28;;;16.12;100.00
70370;BME280;57790;51.356;-2.906;2022-12-20T02:24:24;100367.03;;;16.33;100.00
70370;BME280;57790;51.356;-2.906;2022-12-20T02:30:59;100400.00;;;16.20;100.00
70370;BME280;57790;51.356;-2.906;2022-12-20T02:34:04;100409.69;;;16.08;100.00
70370;BME280;57790;51.356;-2.906;2022-12-20T02:37:06;100390.13;;;16.08;100.00
70370;BME280;57790;51.356;-2.906;2022-12-20T02:40:07;100390.75;;;16.10;100.00
70370;BME280;57790;51.356;-2.906;2022-12-20T02:43:09;100394.25;;;16.10;100.00
70370;BME280;57790;51.356;-2.906;2022-12-20T02:46:29;100376.56;;;16.09;100.00
70370;BME280;57790;51.356;-2.906;2022-12-20T02:49:34;100382.50;;;16.11;100.00
70370;BME280;57790;51.356;-2.906;2022-12-20T02:52:38;100399.38;;;16.05;100.00
70370;BME280;57790;51.356;-2.906;2022-12-20T02:55:55;100404.72;;;16.05;100.00
70370;BME280;57790;51.356;-2.906;2022-12-20T02:59:11;100394.03;;;15.98;100.00
70370;BME280;57790;51.356;-2.906;2022-12-20T03:02:13;100388.06;;;15.96;100.00
70370;BME280;57790;51.356;-2.906;2022-12-20T03:05:14;100370.41;;;15.95;100.00
70370;BME280;57790;51.356;-2.906;2022-12-20T03:08:15;100382.72;;;15.90;100.00
70370;BME280;57790;51.356;-2.906;2022-12-20T03:11:16;100380.03;;;15.90;100.00
70370;BME280;57790;51.356;-2.906;2022-12-20T03:14:16;100376.75;;;15.88;100.00
70370;BME280;57790;51.356;-2.906;2022-12-20T03:17:16;100370.59;;;15.81;100.00
70370;BME280;57790;51.356;-2.906;2022-12-20T03:20:17;100377.38;;;15.83;100.00
70370;BME280;57790;51.356;-2.906;2022-12-20T03:23:17;100373.06;;;15.82;100.00
70370;BME280;57790;51.356;-2.906;2022-12-20T03:26:18;100386.84;;;15.86;100.00
70370;BME280;57790;51.356;-2.906;2022-12-20T03:29:18;100371.00;;;15.84;100.00
70370;BME280;57790;51.356;-2.906;2022-12-20T03:32:19;100369.38;;;15.83;100.00
70370;BME280;57790;51.356;-2.906;2022-12-20T03:35:19;100373.06;;;15.82;100.00
70370;BME280;57790;51.356;-2.906;2022-12-20T03:38:19;100390.94;;;15.75;100.00
70370;BME280;57790;51.356;-2.906;2022-12-20T03:41:21;100410.69;;;15.74;100.00
70370;BME280;57790;51.356;-2.906;2022-12-20T03:44:21;100412.72;;;15.72;100.00
70370;BME280;57790;51.356;-2.906;2022-12-20T03:47:24;100416.03;;;15.74;100.00
70370;BME280;57790;51.356;-2.906;2022-12-20T03:50:24;100424.44;;;15.71;100.00
70370;BME280;57790;51.356;-2.906;2022-12-20T03:53:24;100441.31;;;15.71;100.00
70370;BME280;57790;51.356;-2.906;2022-12-20T03:56:25;100450.56;;;15.69;100.00
70370;BME280;57790;51.356;-2.906;2022-12-20T03:59:25;100443.38;;;15.63;100.00
70370;BME280;57790;51.356;-2.906;2022-12-20T04:02:25;100454.22;;;15.61;100.00
70370;BME280;57790;51.356;-2.906;2022-12-20T04:05:26;100460.38;;;15.55;100.00
70370;BME280;57790;51.356;-2.906;2022-12-20T04:08:26;100476.00;;;15.52;100.00
70370;BME280;57790;51.356;-2.906;2022-12-20T04:11:26;100477.22;;;15.49;100.00
70370;BME280;57790;51.356;-2.906;2022-12-20T04:14:27;100475.75;;;15.46;100.00
70370;BME280;57790;51.356;-2.906;2022-12-20T04:17:27;100475.53;;;15.41;100.00
70370;BME280;57790;51.356;-2.906;2022-12-20T04:20:28;100479.22;;;15.34;100.00
70370;BME280;57790;51.356;-2.906;2022-12-20T04:23:28;100480.88;;;15.35;100.00
70370;BME280;57790;51.356;-2.906;2022-12-20T04:26:29;100497.53;;;15.43;100.00
70370;BME280;57790;51.356;-2.906;2022-12-20T04:29:30;100498.56;;;15.42;100.00
70370;BME280;57790;51.356;-2.906;2022-12-20T04:32:30;100501.41;;;15.34;100.00
70370;BME280;57790;51.356;-2.906;2022-12-20T04:35:31;100507.94;;;15.32;100.00
70370;BME280;57790;51.356;-2.906;2022-12-20T04:38:32;100516.84;;;15.39;100.00
70370;BME280;57790;51.356;-2.906;2022-12-20T04:41:32;100522.19;;;15.39;100.00
70370;BME280;57790;51.356;-2.906;2022-12-20T04:44:33;100527.13;;;15.42;100.00
70370;BME280;57790;51.356;-2.906;2022-12-20T04:47:33;100523.34;;;15.30;100.00
70370;BME280;57790;51.356;-2.906;2022-12-20T04:50:33;100527.69;;;15.31;100.00
70370;BME280;57790;51.356;-2.906;2022-12-20T04:53:34;100514.09;;;15.19;100.00
70370;BME280;57790;51.356;-2.906;2022-12-20T04:56:47;100520.88;;;15.22;100.00
70370;BME280;57790;51.356;-2.906;2022-12-20T04:59:47;100523.28;;;15.16;100.00
70370;BME280;57790;51.356;-2.906;2022-12-20T05:02:47;100530.72;;;15.21;100.00
70370;BME280;57790;51.356;-2.906;2022-12-20T05:05:48;100541.22;;;15.23;100.00
70370;BME280;57790;51.356;-2.906;2022-12-20T05:08:48;100534.59;;;15.18;100.00
70370;BME280;57790;51.356;-2.906;2022-12-20T05:11:49;100537.47;;;15.17;100.00
70370;BME280;57790;51.356;-2.906;2022-12-20T05:14:49;100546.69;;;15.14;100.00
70370;BME280;57790;51.356;-2.906;2022-12-20T05:17:49;100534.78;;;15.10;100.00
70370;BME280;57790;51.356;-2.906;2022-12-20T05:20:50;100540.72;;;15.06;100.00
70370;BME280;57790;51.356;-2.906;2022-12-20T05:24:10;100545.59;;;15.02;100.00
70370;BME280;57790;51.356;-2.906;2022-12-20T05:27:29;100555.25;;;15.03;100.00
70370;BME280;57790;51.356;-2.906;2022-12-20T05:30:29;100558.13;;;15.02;100.00
70370;BME280;57790;51.356;-2.906;2022-12-20T05:33:30;100577.41;;;14.97;100.00
70370;BME280;57790;51.356;-2.906;2022-12-20T05:36:30;100586.00;;;14.93;100.00
70370;BME280;57790;51.356;-2.906;2022-12-20T05:39:31;100591.72;;;14.89;100.00
70370;BME280;57790;51.356;-2.906;2022-12-20T05:42:32;100602.34;;;14.83;100.00
70370;BME280;57790;51.356;-2.906;2022-12-20T05:45:33;100610.16;;;14.84;100.00
70370;BME280;57790;51.356;-2.906;2022-12-20T05:48:34;100624.09;;;14.80;100.00
70370;BME280;57790;51.356;-2.906;2022-12-20T05:51:34;100630.25;;;14.80;100.00
70370;BME280;57790;51.356;-2.906;2022-12-20T05:54:35;100640.50;;;14.77;100.00
70370;BME280;57790;51.356;-2.906;2022-12-20T05:57:35;100640.88;;;14.74;100.00
70370;BME280;57790;51.356;-2.906;2022-12-20T06:00:36;100638.78;;;14.69;100.00
70370;BME280;57790;51.356;-2.906;2022-12-20T06:03:38;100636.75;;;14.71;100.00
70370;BME280;57790;51.356;-2.906;2022-12-20T06:06:39;100639.56;;;14.63;100.00
70370;BME280;57790;51.356;-2.906;2022-12-20T06:09:39;100645.53;;;14.65;100.00
70370;BME280;57790;51.356;-2.906;2022-12-20T06:12:39;100645.88;;;14.83;100.00
70370;BME280;57790;51.356;-2.906;2022-12-20T06:15:40;100644.94;;;15.19;100.00
70370;BME280;57790;51.356;-2.906;2022-12-20T06:18:40;100650.41;;;15.39;100.00
70370;BME280;57790;51.356;-2.906;2022-12-20T06:21:40;100655.75;;;15.39;100.00
70370;BME280;57790;51.356;-2.906;2022-12-20T06:24:41;100664.00;;;15.44;100.00
70370;BME280;57790;51.356;-2.906;2022-12-20T06:27:41;100660.69;;;15.42;100.00
70370;BME280;57790;51.356;-2.906;2022-12-20T06:30:42;100665.63;;;15.45;100.00
70370;BME280;57790;51.356;-2.906;2022-12-20T06:33:42;100662.78;;;15.46;100.00
70370;BME280;57790;51.356;-2.906;2022-12-20T06:36:43;100670.41;;;15.50;100.00
70370;BME280;57790;51.356;-2.906;2022-12-20T06:39:44;100672.41;;;15.41;100.00
70370;BME280;57790;51.356;-2.906;2022-12-20T06:42:44;100679.19;;;15.43;100.00
70370;BME280;57790;51.356;-2.906;2022-12-20T06:45:45;100682.88;;;15.36;100.00
70370;BME280;57790;51.356;-2.906;2022-12-20T06:48:45;100677.94;;;15.39;100.00
70370;BME280;57790;51.356;-2.906;2022-12-20T06:51:46;100690.31;;;15.47;100.00
70370;BME280;57790;51.356;-2.906;2022-12-20T06:54:46;100689.84;;;15.37;100.00
70370;BME280;57790;51.356;-2.906;2022-12-20T06:57:46;100688.41;;;15.34;100.00
70370;BME280;57790;51.356;-2.906;2022-12-20T07:00:47;100698.09;;;15.42;100.00
70370;BME280;57790;51.356;-2.906;2022-12-20T07:03:48;100695.13;;;15.30;100.00
70370;BME280;57790;51.356;-2.906;2022-12-20T07:06:48;100697.03;;;15.36;100.00
70370;BME280;57790;51.356;-2.906;2022-12-20T07:09:48;100707.44;;;15.25;100.00
70370;BME280;57790;51.356;-2.906;2022-12-20T07:12:51;100704.56;;;15.26;100.00
70370;BME280;57790;51.356;-2.906;2022-12-20T07:15:57;100711.88;;;15.17;100.00
70370;BME280;57790;51.356;-2.906;2022-12-20T07:18:57;100708.66;;;15.22;100.00
70370;BME280;57790;51.356;-2.906;2022-12-20T07:21:58;100709.34;;;15.09;100.00
70370;BME280;57790;51.356;-2.906;2022-12-20T07:24:58;100714.31;;;15.12;100.00
70370;BME280;57790;51.356;-2.906;2022-12-20T07:27:58;100719.53;;;14.99;100.00
70370;BME280;57790;51.356;-2.906;2022-12-20T07:31:00;100721.81;;;15.02;100.00
70370;BME280;57790;51.356;-2.906;2022-12-20T07:34:01;100719.91;;;14.96;100.00
70370;BME280;57790;51.356;-2.906;2022-12-20T07:37:02;100725.50;;;15.01;100.00
70370;BME280;57790;51.356;-2.906;2022-12-20T07:40:03;100724.63;;;14.94;100.00
70370;BME280;57790;51.356;-2.906;2022-12-20T07:43:04;100727.31;;;14.94;100.00
70370;BME280;57790;51.356;-2.906;2022-12-20T07:46:05;100742.16;;;15.03;100.00
70370;BME280;57790;51.356;-2.906;2022-12-20T07:49:06;100733.06;;;14.98;100.00
70370;BME280;57790;51.356;-2.906;2022-12-20T07:52:07;100736.31;;;15.14;100.00
70370;BME280;57790;51.356;-2.906;2022-12-20T07:55:10;100738.16;;;14.93;100.00
70370;BME280;57790;51.356;-2.906;2022-12-20T07:58:12;100743.13;;;14.96;100.00
70370;BME280;57790;51.356;-2.906;2022-12-20T08:01:14;100743.88;;;14.89;100.00
70370;BME280;57790;51.356;-2.906;2022-12-20T08:04:20;100751.31;;;14.94;100.00
70370;BME280;57790;51.356;-2.906;2022-12-20T08:07:23;100760.41;;;15.00;100.00
70370;BME280;57790;51.356;-2.906;2022-12-20T08:10:24;100767.19;;;15.02;100.00
70370;BME280;57790;51.356;-2.906;2022-12-20T08:13:25;100763.03;;;14.93;100.00
70370;BME280;57790;51.356;-2.906;2022-12-20T08:16:25;100763.03;;;14.93;100.00
70370;BME280;57790;51.356;-2.906;2022-12-20T08:19:26;100758.44;;;14.87;100.00
70370;BME280;57790;51.356;-2.906;2022-12-20T08:22:26;100766.38;;;15.02;100.00
70370;BME280;57790;51.356;-2.906;2022-12-20T08:25:26;100784.31;;;15.08;100.00
70370;BME280;57790;51.356;-2.906;2022-12-20T08:28:27;100777.38;;;14.92;100.00
70370;BME280;57790;51.356;-2.906;2022-12-20T08:31:27;100792.59;;;14.92;100.00
70370;BME280;57790;51.356;-2.906;2022-12-20T08:34:27;100799.63;;;14.99;100.00
70370;BME280;57790;51.356;-2.906;2022-12-20T08:37:28;100802.59;;;14.89;100.00
70370;BME280;57790;51.356;-2.906;2022-12-20T08:40:28;100803.63;;;14.88;100.00
70370;BME280;57790;51.356;-2.906;2022-12-20T08:43:29;100814.75;;;14.92;100.00
70370;BME280;57790;51.356;-2.906;2022-12-20T08:46:29;100807.59;;;14.93;100.00
70370;BME280;57790;51.356;-2.906;2022-12-20T08:49:30;100810.75;;;15.03;100.00
70370;BME280;57790;51.356;-2.906;2022-12-20T08:52:30;100811.31;;;14.98;100.00
70370;BME280;57790;51.356;-2.906;2022-12-20T08:55:31;100819.91;;;15.15;100.00
70370;BME280;57790;51.356;-2.906;2022-12-20T08:58:32;100825.13;;;15.02;100.00
70370;BME280;57790;51.356;-2.906;2022-12-20T09:01:33;100819.59;;;15.03;100.00
70370;BME280;57790;51.356;-2.906;2022-12-20T09:04:33;100828.06;;;15.07;100.00
70370;BME280;57790;51.356;-2.906;2022-12-20T09:07:34;100829.66;;;15.23;100.00
70370;BME280;57790;51.356;-2.906;2022-12-20T09:10:34;100837.28;;;15.26;100.00
70370;BME280;57790;51.356;-2.906;2022-12-20T09:13:35;100834.44;;;15.48;100.00
70370;BME280;57790;51.356;-2.906;2022-12-20T09:16:35;100838.25;;;15.61;100.00
70370;BME280;57790;51.356;-2.906;2022-12-20T09:19:36;100827.38;;;15.62;100.00
70370;BME280;57790;51.356;-2.906;2022-12-20T09:22:36;100835.00;;;15.65;100.00
70370;BME280;57790;51.356;-2.906;2022-12-20T09:25:36;100838.53;;;15.72;100.00
70370;BME280;57790;51.356;-2.906;2022-12-20T09:28:37;100837.63;;;15.87;100.00
70370;BME280;57790;51.356;-2.906;2022-12-20T09:31:38;100852.59;;;15.81;100.00
70370;BME280;57790;51.356;-2.906;2022-12-20T09:34:38;100852.53;;;16.02;100.00
70370;BME280;57790;51.356;-2.906;2022-12-20T09:37:39;100851.19;;;16.13;100.00
70370;BME280;57790;51.356;-2.906;2022-12-20T09:40:45;100849.84;;;16.30;100.00
70370;BME280;57790;51.356;-2.906;2022-12-20T09:43:46;100856.28;;;16.36;100.00
70370;BME280;57790;51.356;-2.906;2022-12-20T09:46:53;100870.56;;;16.50;100.00
70370;BME280;57790;51.356;-2.906;2022-12-20T09:49:59;100867.38;;;16.68;100.00
70370;BME280;57790;51.356;-2.906;2022-12-20T09:53:17;100869.47;;;16.79;100.00
70370;BME280;57790;51.356;-2.906;2022-12-20T09:59:55;100857.28;;;17.50;100.00
70370;BME280;57790;51.356;-2.906;2022-12-20T10:02:57;100855.47;;;17.71;100.00
70370;BME280;57790;51.356;-2.906;2022-12-20T10:05:59;100859.78;;;17.92;100.00
70370;BME280;57790;51.356;-2.906;2022-12-20T10:09:37;100861.19;;;18.21;100.00
70370;BME280;57790;51.356;-2.906;2022-12-20T10:26:22;100872.84;;;19.49;100.00
70370;BME280;57790;51.356;-2.906;2022-12-20T10:29:23;100875.84;;;19.66;100.00
70370;BME280;57790;51.356;-2.906;2022-12-20T10:32:23;100885.19;;;19.88;100.00
70370;BME280;57790;51.356;-2.906;2022-12-20T10:35:28;100876.72;;;20.09;100.00
70370;BME280;57790;51.356;-2.906;2022-12-20T10:38:44;100893.84;;;20.40;100.00
70370;BME280;57790;51.356;-2.906;2022-12-20T10:41:48;100888.53;;;20.52;100.00
70370;BME280;57790;51.356;-2.906;2022-12-20T10:44:51;100887.94;;;20.68;100.00
70370;BME280;57790;51.356;-2.906;2022-12-20T10:47:58;100887.25;;;20.91;100.00
70370;BME280;57790;51.356;-2.906;2022-12-20T10:51:02;100893.28;;;21.04;100.00
70370;BME280;57790;51.356;-2.906;2022-12-20T10:54:21;100887.84;;;21.41;100.00
70370;BME280;57790;51.356;-2.906;2022-12-20T10:57:27;100878.25;;;21.57;100.00
70370;BME280;57790;51.356;-2.906;2022-12-20T11:00:29;100889.97;;;21.51;100.00
70370;BME280;57790;51.356;-2.906;2022-12-20T11:03:30;100879.56;;;21.78;100.00
70370;BME280;57790;51.356;-2.906;2022-12-20T11:09:37;100887.38;;;22.09;100.00
70370;BME280;57790;51.356;-2.906;2022-12-20T11:12:51;100882.56;;;22.35;100.00
70370;BME280;57790;51.356;-2.906;2022-12-20T11:15:54;100879.34;;;22.61;100.00
70370;BME280;57790;51.356;-2.906;2022-12-20T11:19:29;100880.72;;;22.75;100.00
70370;BME280;57790;51.356;-2.906;2022-12-20T11:32:51;100879.19;;;23.36;96.44
70370;BME280;57790;51.356;-2.906;2022-12-20T11:36:04;100876.50;;;23.36;89.40
70370;BME280;57790;51.356;-2.906;2022-12-20T11:39:39;100883.25;;;23.51;89.79
70370;BME280;57790;51.356;-2.906;2022-12-20T11:52:42;100899.03;;;21.08;100.00
70370;BME280;57790;51.356;-2.906;2022-12-20T11:55:48;100896.41;;;20.71;100.00
70370;BME280;57790;51.356;-2.906;2022-12-20T11:58:52;100895.06;;;20.44;100.00
70370;BME280;57790;51.356;-2.906;2022-12-20T12:01:56;100898.00;;;20.36;100.00
70370;BME280;57790;51.356;-2.906;2022-12-20T12:05:03;100893.25;;;21.41;100.00
70370;BME280;57790;51.356;-2.906;2022-12-20T12:08:08;100886.91;;;22.12;96.17
70370;BME280;57790;51.356;-2.906;2022-12-20T12:11:23;100884.88;;;22.54;92.65
70370;BME280;57790;51.356;-2.906;2022-12-20T12:14:36;100882.25;;;22.71;84.75
70370;BME280;57790;51.356;-2.906;2022-12-20T12:27:23;100877.19;;;21.69;88.20
70370;BME280;57790;51.356;-2.906;2022-12-20T12:30:27;100883.47;;;21.40;97.42
70370;BME280;57790;51.356;-2.906;2022-12-20T12:33:38;100877.94;;;21.05;98.76
70370;BME280;57790;51.356;-2.906;2022-12-20T12:43:54;100876.78;;;18.70;100.00
70370;BME280;57790;51.356;-2.906;2022-12-20T12:46:59;100880.19;;;18.19;100.00
70370;BME280;57790;51.356;-2.906;2022-12-20T12:50:03;100878.56;;;17.92;100.00
70370;BME280;57790;51.356;-2.906;2022-12-20T12:53:07;100874.66;;;17.74;100.00
70370;BME280;57790;51.356;-2.906;2022-12-20T13:02:35;100876.75;;;17.05;100.00
70370;BME280;57790;51.356;-2.906;2022-12-20T13:05:47;100877.59;;;16.99;100.00
70370;BME280;57790;51.356;-2.906;2022-12-20T13:11:56;100883.72;;;16.86;100.00
70370;BME280;57790;51.356;-2.906;2022-12-20T13:14:56;100879.06;;;16.66;100.00
70370;BME280;57790;51.356;-2.906;2022-12-20T13:18:16;100876.88;;;16.42;100.00
70370;BME280;57790;51.356;-2.906;2022-12-20T13:21:30;100886.66;;;16.22;100.00
70370;BME280;57790;51.356;-2.906;2022-12-20T13:27:38;100880.84;;;15.90;100.00
70370;BME280;57790;51.356;-2.906;2022-12-20T13:30:39;100882.66;;;15.83;100.00
70370;BME280;57790;51.356;-2.906;2022-12-20T13:33:41;100879.88;;;15.98;100.00
70370;BME280;57790;51.356;-2.906;2022-12-20T13:36:42;100884.59;;;15.96;100.00
70370;BME280;57790;51.356;-2.906;2022-12-20T13:39:46;100887.56;;;15.80;100.00
70370;BME280;57790;51.356;-2.906;2022-12-20T13:42:50;100885.25;;;15.76;100.00
70370;BME280;57790;51.356;-2.906;2022-12-20T13:46:11;100883.59;;;15.54;100.00
70370;BME280;57790;51.356;-2.906;2022-12-20T13:49:24;100880.47;;;15.51;100.00
70370;BME280;57790;51.356;-2.906;2022-12-20T13:55:39;100887.53;;;15.37;100.00
70370;BME280;57790;51.356;-2.906;2022-12-20T13:58:42;100890.84;;;15.39;100.00
70370;BME280;57790;51.356;-2.906;2022-12-20T14:01:56;100890.94;;;15.31;100.00
70370;BME280;57790;51.356;-2.906;2022-12-20T14:04:59;100891.47;;;15.41;100.00
70370;BME280;57790;51.356;-2.906;2022-12-20T14:08:15;100886.91;;;15.35;100.00
70370;BME280;57790;51.356;-2.906;2022-12-20T14:11:22;100890.69;;;15.26;100.00
70370;BME280;57790;51.356;-2.906;2022-12-20T14:14:25;100886.47;;;15.16;100.00
70370;BME280;57790;51.356;-2.906;2022-12-20T14:17:28;100889.69;;;15.27;100.00
70370;BME280;57790;51.356;-2.906;2022-12-20T14:20:35;100887.81;;;15.06;100.00
70370;BME280;57790;51.356;-2.906;2022-12-20T14:23:45;100892.34;;;15.05;100.00
70370;BME280;57790;51.356;-2.906;2022-12-20T14:26:47;100889.81;;;15.04;100.00
70370;BME280;57790;51.356;-2.906;2022-12-20T14:29:50;100896.50;;;14.93;100.00
70370;BME280;57790;51.356;-2.906;2022-12-20T14:32:51;100898.00;;;14.81;100.00
70370;BME280;57790;51.356;-2.906;2022-12-20T14:35:51;100893.44;;;14.96;100.00
70370;BME280;57790;51.356;-2.906;2022-12-20T14:38:52;100897.59;;;14.84;100.00
70370;BME280;57790;51.356;-2.906;2022-12-20T14:42:01;100907.09;;;14.72;100.00
70370;BME280;57790;51.356;-2.906;2022-12-20T14:48:14;100899.66;;;14.67;100.00
70370;BME280;57790;51.356;-2.906;2022-12-20T14:51:19;100904.63;;;14.70;100.00
70370;BME280;57790;51.356;-2.906;2022-12-20T14:54:27;100898.19;;;14.65;100.00
70370;BME280;57790;51.356;-2.906;2022-12-20T15:00:34;100907.03;;;14.50;100.00
70370;BME280;57790;51.356;-2.906;2022-12-20T15:03:34;100917.50;;;14.67;100.00
70370;BME280;57790;51.356;-2.906;2022-12-20T15:06:44;100907.66;;;14.67;100.00
70370;BME280;57790;51.356;-2.906;2022-12-20T15:09:45;100913.38;;;14.64;100.00
70370;BME280;57790;51.356;-2.906;2022-12-20T15:12:45;100909.69;;;14.65;100.00
70370;BME280;57790;51.356;-2.906;2022-12-20T15:15:46;100908.50;;;14.68;100.00
70370;BME280;57790;51.356;-2.906;2022-12-20T15:18:54;100915.31;;;14.55;100.00
70370;BME280;57790;51.356;-2.906;2022-12-20T15:21:54;100913.28;;;14.57;100.00
70370;BME280;57790;51.356;-2.906;2022-12-20T15:24:56;100918.13;;;14.98;100.00
70370;BME280;57790;51.356;-2.906;2022-12-20T15:27:56;100924.06;;;15.51;100.00
70370;BME280;57790;51.356;-2.906;2022-12-20T15:30:57;100919.94;;;15.70;100.00
70370;BME280;57790;51.356;-2.906;2022-12-20T15:33:57;100918.84;;;15.86;100.00
70370;BME280;57790;51.356;-2.906;2022-12-20T15:36:58;100926.88;;;15.86;100.00
70370;BME280;57790;51.356;-2.906;2022-12-20T15:39:59;100915.94;;;15.81;100.00
70370;BME280;57790;51.356;-2.906;2022-12-20T15:42:59;100914.28;;;15.80;100.00
70370;BME280;57790;51.356;-2.906;2022-12-20T15:46:00;100915.75;;;15.82;100.00
70370;BME280;57790;51.356;-2.906;2022-12-20T15:49:00;100922.13;;;15.81;100.00
70370;BME280;57790;51.356;-2.906;2022-12-20T15:52:02;100927.03;;;15.77;100.00
70370;BME280;57790;51.356;-2.906;2022-12-20T15:55:03;100923.66;;;15.69;100.00
70370;BME280;57790;51.356;-2.906;2022-12-20T15:58:04;100929.44;;;15.72;100.00
70370;BME280;57790;51.356;-2.906;2022-12-20T16:01:04;100930.00;;;15.68;100.00
70370;BME280;57790;51.356;-2.906;2022-12-20T16:04:05;100925.09;;;15.71;100.00
70370;BME280;57790;51.356;-2.906;2022-12-20T16:07:09;100930.84;;;15.68;100.00
70370;BME280;57790;51.356;-2.906;2022-12-20T16:10:12;100936.78;;;15.64;100.00
70370;BME280;57790;51.356;-2.906;2022-12-20T16:13:15;100935.94;;;15.63;100.00
70370;BME280;57790;51.356;-2.906;2022-12-20T16:16:18;100930.94;;;15.60;100.00
70370;BME280;57790;51.356;-2.906;2022-12-20T16:19:19;100936.03;;;15.76;100.00
70370;BME280;57790;51.356;-2.906;2022-12-20T16:22:21;100937.44;;;15.72;100.00
70370;BME280;57790;51.356;-2.906;2022-12-20T16:25:28;100945.81;;;15.63;100.00
70370;BME280;57790;51.356;-2.906;2022-12-20T16:28:29;100944.88;;;15.56;100.00
70370;BME280;57790;51.356;-2.906;2022-12-20T16:31:32;100955.94;;;15.53;100.00
70370;BME280;57790;51.356;-2.906;2022-12-20T16:34:32;100953.94;;;15.40;100.00
70370;BME280;57790;51.356;-2.906;2022-12-20T16:37:33;100948.84;;;15.45;100.00
70370;BME280;57790;51.356;-2.906;2022-12-20T16:40:33;100945.53;;;15.43;100.00
70370;BME280;57790;51.356;-2.906;2022-12-20T16:43:34;100953.94;;;15.40;100.00
70370;BME280;57790;51.356;-2.906;2022-12-20T16:46:34;100948.78;;;15.38;100.00
70370;BME280;57790;51.356;-2.906;2022-12-20T16:49:34;100949.91;;;15.29;100.00
70370;BME280;57790;51.356;-2.906;2022-12-20T16:52:35;100953.97;;;15.25;100.00
70370;BME280;57790;51.356;-2.906;2022-12-20T16:55:36;100955.56;;;15.20;100.00
70370;BME280;57790;51.356;-2.906;2022-12-20T16:58:37;100957.97;;;15.14;100.00
70370;BME280;57790;51.356;-2.906;2022-12-20T17:01:45;100962.47;;;15.14;100.00
70370;BME280;57790;51.356;-2.906;2022-12-20T17:04:45;100951.34;;;15.10;100.00